createdAt,value
2018-03-31T00:00:29.234Z,0.00
2018-03-31T00:01:29.131Z,0.00
2018-03-31T00:02:29.027Z,0.00
2018-03-31T00:03:28.929Z,0.00
2018-03-31T00:04:28.821Z,0.00
2018-03-31T00:05:28.706Z,0.00
2018-03-31T00:06:28.603Z,0.00
2018-03-31T00:07:28.498Z,0.00
2018-03-31T00:08:28.394Z,0.00
2018-03-31T00:09:28.291Z,0.00
2018-03-31T00:10:28.187Z,0.00
2018-03-31T00:11:28.084Z,0.00
2018-03-31T00:12:27.969Z,0.00
2018-03-31T00:13:27.867Z,0.00
2018-03-31T00:14:27.762Z,0.00
2018-03-31T00:15:27.660Z,0.00
2018-03-31T00:16:27.556Z,0.00
2018-03-31T00:17:27.453Z,0.00
2018-03-31T00:18:27.338Z,0.00
2018-03-31T00:19:27.233Z,0.00
2018-03-31T00:20:27.130Z,0.00
2018-03-31T00:21:27.026Z,0.00
2018-03-31T00:22:27.173Z,0.00
2018-03-31T00:23:26.819Z,0.00
2018-03-31T00:24:26.717Z,0.00
2018-03-31T00:25:26.602Z,0.00
2018-03-31T00:26:26.497Z,0.00
2018-03-31T00:27:26.395Z,0.00
2018-03-31T00:28:26.294Z,0.00
2018-03-31T00:29:26.205Z,0.00
2018-03-31T00:30:26.089Z,0.00
2018-03-31T00:31:25.969Z,0.00
2018-03-31T00:32:25.864Z,0.00
2018-03-31T00:33:25.762Z,0.00
2018-03-31T00:34:25.658Z,0.00
2018-03-31T00:35:25.555Z,0.00
2018-03-31T00:36:25.451Z,0.00
2018-03-31T00:37:25.362Z,0.00
2018-03-31T00:38:25.233Z,0.00
2018-03-31T00:39:25.130Z,0.00
2018-03-31T00:40:25.026Z,0.00
2018-03-31T00:41:24.923Z,0.00
2018-03-31T00:42:24.821Z,0.00
2018-03-31T00:43:24.716Z,0.00
2018-03-31T00:44:24.600Z,0.00
2018-03-31T00:45:24.496Z,0.00
2018-03-31T00:46:24.393Z,0.00
2018-03-31T00:47:24.291Z,0.00
2018-03-31T00:48:24.189Z,0.00
2018-03-31T00:49:24.083Z,0.00
2018-03-31T00:50:23.968Z,0.00
2018-03-31T00:51:23.865Z,0.00
2018-03-31T00:52:23.762Z,0.00
2018-03-31T00:53:23.658Z,0.00
2018-03-31T00:54:23.554Z,0.00
2018-03-31T00:55:23.451Z,0.00
2018-03-31T00:56:23.336Z,0.00
2018-03-31T00:57:23.232Z,0.00
2018-03-31T00:58:23.133Z,0.00
2018-03-31T00:59:23.025Z,0.00
2018-03-31T01:00:22.921Z,0.00
2018-03-31T01:01:22.820Z,0.00
2018-03-31T01:02:22.705Z,0.00
2018-03-31T01:03:22.602Z,0.00
2018-03-31T01:04:22.496Z,0.00
2018-03-31T01:05:22.394Z,0.00
2018-03-31T01:06:22.290Z,0.00
2018-03-31T01:07:22.187Z,0.00
2018-03-31T01:08:22.083Z,0.00
2018-03-31T01:09:21.967Z,0.00
2018-03-31T01:10:21.863Z,0.00
2018-03-31T01:11:21.761Z,0.00
2018-03-31T01:12:21.657Z,0.00
2018-03-31T01:13:21.555Z,0.00
2018-03-31T01:14:21.438Z,0.00
2018-03-31T01:15:21.335Z,0.00
2018-03-31T01:16:21.232Z,0.00
2018-03-31T01:17:21.129Z,0.00
2018-03-31T01:18:21.024Z,0.00
2018-03-31T01:19:20.910Z,0.00
2018-03-31T01:20:20.806Z,0.00
2018-03-31T01:21:20.702Z,0.00
2018-03-31T01:22:20.602Z,0.00
2018-03-31T01:23:20.496Z,0.00
2018-03-31T01:24:20.393Z,0.00
2018-03-31T01:25:20.277Z,0.00
2018-03-31T01:26:20.175Z,0.00
2018-03-31T01:27:20.071Z,0.00
2018-03-31T01:28:19.971Z,0.00
2018-03-31T01:29:19.864Z,0.00
2018-03-31T01:30:19.750Z,0.00
2018-03-31T01:31:19.644Z,0.00
2018-03-31T01:32:19.540Z,0.00
2018-03-31T01:33:19.437Z,0.00
2018-03-31T01:34:19.333Z,0.00
2018-03-31T01:35:19.237Z,0.00
2018-03-31T01:36:19.115Z,0.00
2018-03-31T01:37:19.013Z,0.00
2018-03-31T01:38:18.910Z,0.00
2018-03-31T01:39:18.804Z,0.00
2018-03-31T01:40:18.703Z,0.00
2018-03-31T01:41:18.598Z,0.00
2018-03-31T01:42:18.484Z,0.00
2018-03-31T01:43:18.384Z,0.00
2018-03-31T01:44:18.276Z,0.00
2018-03-31T01:45:18.173Z,0.00
2018-03-31T01:46:18.070Z,0.00
2018-03-31T01:47:17.955Z,0.00
2018-03-31T01:48:17.852Z,0.00
2018-03-31T01:49:17.749Z,0.00
2018-03-31T01:50:17.644Z,0.00
2018-03-31T01:51:17.541Z,0.00
2018-03-31T01:52:17.426Z,0.00
2018-03-31T01:53:17.336Z,0.00
2018-03-31T01:54:17.231Z,0.00
2018-03-31T01:55:17.114Z,0.00
2018-03-31T01:56:17.011Z,0.00
2018-03-31T01:57:16.898Z,0.00
2018-03-31T01:58:16.792Z,0.00
2018-03-31T01:59:16.689Z,0.00
2018-03-31T02:00:16.588Z,0.00
2018-03-31T02:01:16.483Z,0.00
2018-03-31T02:02:16.367Z,0.00
2018-03-31T02:03:16.263Z,0.00
2018-03-31T02:04:16.160Z,0.00
2018-03-31T02:05:16.057Z,0.00
2018-03-31T02:06:15.953Z,0.00
2018-03-31T02:07:15.842Z,0.00
2018-03-31T02:08:15.737Z,0.00
2018-03-31T02:09:15.632Z,0.00
2018-03-31T02:10:15.529Z,0.00
2018-03-31T02:11:15.425Z,0.00
2018-03-31T02:12:15.322Z,0.00
2018-03-31T02:13:15.204Z,0.00
2018-03-31T02:14:15.102Z,0.00
2018-03-31T02:15:14.998Z,0.00
2018-03-31T02:16:14.894Z,0.00
2018-03-31T02:17:14.810Z,0.00
2018-03-31T02:18:14.676Z,0.00
2018-03-31T02:19:14.573Z,0.00
2018-03-31T02:20:14.470Z,0.00
2018-03-31T02:21:14.368Z,0.00
2018-03-31T02:22:14.263Z,0.00
2018-03-31T02:23:14.159Z,0.00
2018-03-31T02:24:14.044Z,0.00
2018-03-31T02:25:13.941Z,0.00
2018-03-31T02:26:13.826Z,0.00
2018-03-31T02:27:13.723Z,0.00
2018-03-31T02:28:13.618Z,0.00
2018-03-31T02:29:13.515Z,0.00
2018-03-31T02:30:13.416Z,0.00
2018-03-31T02:31:13.296Z,0.00
2018-03-31T02:32:13.194Z,0.00
2018-03-31T02:33:13.088Z,0.00
2018-03-31T02:34:12.990Z,0.00
2018-03-31T02:35:12.886Z,0.00
2018-03-31T02:36:12.769Z,0.00
2018-03-31T02:37:12.664Z,0.00
2018-03-31T02:38:12.561Z,0.00
2018-03-31T02:39:12.458Z,0.00
2018-03-31T02:40:12.357Z,0.00
2018-03-31T02:41:12.250Z,0.00
2018-03-31T02:42:12.134Z,0.00
2018-03-31T02:43:12.031Z,0.00
2018-03-31T02:44:11.927Z,0.00
2018-03-31T02:45:11.824Z,0.00
2018-03-31T02:46:11.709Z,0.00
2018-03-31T02:47:11.606Z,0.00
2018-03-31T02:48:11.504Z,0.00
2018-03-31T02:49:11.400Z,0.00
2018-03-31T02:50:11.285Z,0.00
2018-03-31T02:51:11.185Z,0.00
2018-03-31T02:52:11.076Z,0.00
2018-03-31T02:53:10.973Z,0.00
2018-03-31T02:54:10.870Z,0.00
2018-03-31T02:55:10.754Z,0.00
2018-03-31T02:56:10.654Z,0.00
2018-03-31T02:57:10.548Z,0.00
2018-03-31T02:58:10.444Z,0.00
2018-03-31T02:59:10.346Z,0.00
2018-03-31T03:00:10.224Z,0.00
2018-03-31T03:01:10.124Z,0.00
2018-03-31T03:02:10.018Z,0.00
2018-03-31T03:03:09.916Z,0.00
2018-03-31T03:04:09.799Z,0.00
2018-03-31T03:05:09.699Z,0.00
2018-03-31T03:06:09.596Z,0.00
2018-03-31T03:07:09.493Z,0.00
2018-03-31T03:08:09.385Z,0.00
2018-03-31T03:09:09.269Z,0.00
2018-03-31T03:10:09.166Z,0.00
2018-03-31T03:11:09.063Z,0.00
2018-03-31T03:12:08.959Z,0.00
2018-03-31T03:13:08.844Z,0.00
2018-03-31T03:14:08.741Z,0.00
2018-03-31T03:15:08.638Z,0.00
2018-03-31T03:16:08.534Z,0.00
2018-03-31T03:17:08.420Z,0.00
2018-03-31T03:18:08.316Z,0.00
2018-03-31T03:19:08.211Z,0.00
2018-03-31T03:20:08.108Z,0.00
2018-03-31T03:21:08.005Z,0.00
2018-03-31T03:22:07.889Z,0.00
2018-03-31T03:23:07.789Z,0.00
2018-03-31T03:24:07.684Z,0.00
2018-03-31T03:25:07.580Z,0.00
2018-03-31T03:26:07.464Z,0.00
2018-03-31T03:27:07.359Z,0.00
2018-03-31T03:28:07.256Z,0.00
2018-03-31T03:29:07.152Z,0.00
2018-03-31T03:30:07.040Z,0.00
2018-03-31T03:31:06.938Z,0.00
2018-03-31T03:32:06.832Z,0.00
2018-03-31T03:33:06.728Z,0.00
2018-03-31T03:34:06.625Z,0.00
2018-03-31T03:35:06.508Z,0.00
2018-03-31T03:36:06.405Z,0.00
2018-03-31T03:37:06.306Z,0.00
2018-03-31T03:38:06.198Z,0.00
2018-03-31T03:39:06.094Z,0.00
2018-03-31T03:40:05.980Z,0.00
2018-03-31T03:41:05.878Z,0.00
2018-03-31T03:42:06.074Z,0.00
2018-03-31T03:43:05.658Z,0.00
2018-03-31T03:44:05.553Z,0.00
2018-03-31T03:45:05.450Z,0.00
2018-03-31T03:46:05.347Z,0.00
2018-03-31T03:47:05.243Z,0.00
2018-03-31T03:48:05.128Z,0.00
2018-03-31T03:49:05.025Z,0.00
2018-03-31T03:50:04.922Z,0.00
2018-03-31T03:51:04.818Z,0.00
2018-03-31T03:52:04.703Z,0.00
2018-03-31T03:53:04.599Z,0.00
2018-03-31T03:54:04.495Z,0.00
2018-03-31T03:55:04.391Z,0.00
2018-03-31T03:56:04.289Z,0.00
2018-03-31T03:57:04.186Z,0.00
2018-03-31T03:58:04.074Z,0.00
2018-03-31T03:59:03.970Z,0.00
2018-03-31T04:00:03.863Z,0.00
2018-03-31T04:01:03.760Z,0.00
2018-03-31T04:02:03.646Z,0.00
2018-03-31T04:03:03.540Z,0.00
2018-03-31T04:04:03.437Z,0.00
2018-03-31T04:05:03.333Z,0.00
2018-03-31T04:06:03.218Z,0.00
2018-03-31T04:07:03.115Z,0.00
2018-03-31T04:08:03.014Z,0.00
2018-03-31T04:09:02.909Z,0.00
2018-03-31T04:10:02.805Z,0.00
2018-03-31T04:11:02.710Z,0.00
2018-03-31T04:12:02.587Z,0.00
2018-03-31T04:13:02.482Z,0.00
2018-03-31T04:14:02.379Z,0.00
2018-03-31T04:15:02.289Z,0.00
2018-03-31T04:16:02.160Z,0.00
2018-03-31T04:17:02.058Z,0.00
2018-03-31T04:18:01.954Z,0.00
2018-03-31T04:19:01.851Z,0.00
2018-03-31T04:20:01.736Z,0.00
2018-03-31T04:21:01.631Z,0.00
2018-03-31T04:22:01.528Z,0.00
2018-03-31T04:23:01.424Z,0.00
2018-03-31T04:24:01.320Z,0.00
2018-03-31T04:25:01.219Z,0.00
2018-03-31T04:26:01.102Z,0.00
2018-03-31T04:27:01.000Z,0.00
2018-03-31T04:28:00.896Z,0.00
2018-03-31T04:29:00.793Z,0.00
2018-03-31T04:30:00.677Z,0.00
2018-03-31T04:31:00.585Z,0.00
2018-03-31T04:32:00.769Z,0.00
2018-03-31T04:33:00.366Z,0.00
2018-03-31T04:34:00.262Z,0.00
2018-03-31T04:35:00.148Z,0.00
2018-03-31T04:36:00.045Z,0.00
2018-03-31T04:36:59.943Z,0.00
2018-03-31T04:37:59.840Z,0.00
2018-03-31T04:38:59.734Z,0.00
2018-03-31T04:39:59.619Z,0.00
2018-03-31T04:40:59.514Z,0.00
2018-03-31T04:41:59.411Z,0.00
2018-03-31T04:42:59.309Z,0.00
2018-03-31T04:43:59.218Z,0.00
2018-03-31T04:44:59.089Z,0.00
2018-03-31T04:45:58.987Z,0.00
2018-03-31T04:46:58.882Z,5.63
2018-03-31T04:47:58.779Z,5.63
2018-03-31T04:48:58.676Z,5.63
2018-03-31T04:49:58.561Z,5.63
2018-03-31T04:50:58.456Z,5.63
2018-03-31T04:51:58.353Z,5.63
2018-03-31T04:52:58.249Z,5.63
2018-03-31T04:53:58.146Z,11.25
2018-03-31T04:54:58.031Z,11.25
2018-03-31T04:55:57.928Z,11.25
2018-03-31T04:56:57.825Z,11.25
2018-03-31T04:57:57.722Z,11.25
2018-03-31T04:58:57.618Z,16.88
2018-03-31T04:59:57.502Z,16.88
2018-03-31T05:00:57.400Z,16.88
2018-03-31T05:01:57.294Z,22.50
2018-03-31T05:02:57.190Z,22.50
2018-03-31T05:03:57.087Z,22.50
2018-03-31T05:04:56.988Z,22.50
2018-03-31T05:05:56.869Z,28.13
2018-03-31T05:06:56.766Z,28.13
2018-03-31T05:07:56.662Z,28.13
2018-03-31T05:08:56.559Z,28.13
2018-03-31T05:09:56.446Z,28.13
2018-03-31T05:10:56.341Z,28.13
2018-03-31T05:11:56.239Z,28.13
2018-03-31T05:12:56.133Z,28.13
2018-03-31T05:13:56.030Z,33.75
2018-03-31T05:14:55.926Z,33.75
2018-03-31T05:15:55.811Z,33.75
2018-03-31T05:16:55.714Z,39.38
2018-03-31T05:17:55.635Z,39.38
2018-03-31T05:18:55.501Z,39.38
2018-03-31T05:19:55.399Z,45.00
2018-03-31T05:20:55.282Z,45.00
2018-03-31T05:21:55.181Z,50.63
2018-03-31T05:22:55.075Z,56.25
2018-03-31T05:23:54.971Z,56.25
2018-03-31T05:24:54.868Z,61.88
2018-03-31T05:25:54.752Z,61.88
2018-03-31T05:26:54.656Z,67.50
2018-03-31T05:27:54.551Z,67.50
2018-03-31T05:28:54.443Z,73.13
2018-03-31T05:29:54.340Z,73.13
2018-03-31T05:30:54.224Z,73.13
2018-03-31T05:31:54.129Z,78.75
2018-03-31T05:32:54.017Z,73.13
2018-03-31T05:33:53.913Z,73.13
2018-03-31T05:34:53.810Z,73.13
2018-03-31T05:35:53.707Z,73.13
2018-03-31T05:36:53.591Z,73.13
2018-03-31T05:37:53.488Z,73.13
2018-03-31T05:38:53.386Z,73.13
2018-03-31T05:39:53.286Z,73.13
2018-03-31T05:40:53.179Z,78.75
2018-03-31T05:41:53.061Z,78.75
2018-03-31T05:42:52.958Z,78.75
2018-03-31T05:43:52.856Z,78.75
2018-03-31T05:44:52.752Z,78.75
2018-03-31T05:45:52.653Z,78.75
2018-03-31T05:46:52.547Z,78.75
2018-03-31T05:47:52.430Z,84.38
2018-03-31T05:48:52.328Z,84.38
2018-03-31T05:49:52.228Z,90.00
2018-03-31T05:50:52.119Z,95.63
2018-03-31T05:51:52.017Z,101.25
2018-03-31T05:52:51.905Z,106.88
2018-03-31T05:53:51.798Z,112.50
2018-03-31T05:54:51.694Z,118.13
2018-03-31T05:55:51.592Z,112.50
2018-03-31T05:56:51.487Z,112.50
2018-03-31T05:57:51.384Z,106.88
2018-03-31T05:58:51.273Z,101.25
2018-03-31T05:59:51.165Z,95.63
2018-03-31T06:00:51.062Z,95.63
2018-03-31T06:01:50.959Z,90.00
2018-03-31T06:02:50.855Z,84.38
2018-03-31T06:03:50.753Z,78.75
2018-03-31T06:04:50.650Z,78.75
2018-03-31T06:05:50.537Z,73.13
2018-03-31T06:06:50.428Z,73.13
2018-03-31T06:07:50.325Z,73.13
2018-03-31T06:08:50.227Z,78.75
2018-03-31T06:09:50.119Z,84.38
2018-03-31T06:10:50.017Z,90.00
2018-03-31T06:11:49.908Z,101.25
2018-03-31T06:12:49.797Z,106.88
2018-03-31T06:13:49.694Z,118.13
2018-03-31T06:14:49.591Z,123.75
2018-03-31T06:15:49.487Z,129.38
2018-03-31T06:16:49.383Z,123.75
2018-03-31T06:17:49.268Z,112.50
2018-03-31T06:18:49.169Z,106.88
2018-03-31T06:19:49.063Z,95.63
2018-03-31T06:20:48.957Z,90.00
2018-03-31T06:21:49.153Z,84.38
2018-03-31T06:22:48.750Z,84.38
2018-03-31T06:23:48.637Z,78.75
2018-03-31T06:24:48.532Z,78.75
2018-03-31T06:25:48.429Z,73.13
2018-03-31T06:26:48.326Z,67.50
2018-03-31T06:27:48.223Z,67.50
2018-03-31T06:28:48.122Z,67.50
2018-03-31T06:29:48.003Z,67.50
2018-03-31T06:30:47.899Z,67.50
2018-03-31T06:31:47.802Z,67.50
2018-03-31T06:32:47.692Z,61.88
2018-03-31T06:33:47.589Z,61.88
2018-03-31T06:34:47.486Z,61.88
2018-03-31T06:35:47.384Z,67.50
2018-03-31T06:36:47.268Z,73.13
2018-03-31T06:37:47.164Z,78.75
2018-03-31T06:38:47.064Z,78.75
2018-03-31T06:39:46.962Z,84.38
2018-03-31T06:40:46.855Z,84.38
2018-03-31T06:41:46.739Z,84.38
2018-03-31T06:42:46.634Z,90.00
2018-03-31T06:43:46.560Z,95.63
2018-03-31T06:44:46.428Z,101.25
2018-03-31T06:45:46.325Z,112.50
2018-03-31T06:46:46.280Z,118.13
2018-03-31T06:47:46.106Z,118.13
2018-03-31T06:48:46.003Z,112.50
2018-03-31T06:49:45.899Z,106.88
2018-03-31T06:50:45.796Z,101.25
2018-03-31T06:51:45.692Z,90.00
2018-03-31T06:52:45.592Z,78.75
2018-03-31T06:53:45.474Z,73.13
2018-03-31T06:54:45.392Z,61.88
2018-03-31T06:55:45.261Z,61.88
2018-03-31T06:56:45.164Z,56.25
2018-03-31T06:57:45.060Z,50.63
2018-03-31T06:58:44.945Z,50.63
2018-03-31T06:59:44.845Z,50.63
2018-03-31T07:00:44.737Z,50.63
2018-03-31T07:01:44.634Z,56.25
2018-03-31T07:02:44.530Z,61.88
2018-03-31T07:03:44.416Z,73.13
2018-03-31T07:04:44.311Z,78.75
2018-03-31T07:05:44.207Z,84.38
2018-03-31T07:06:44.112Z,90.00
2018-03-31T07:07:44.001Z,101.25
2018-03-31T07:08:43.887Z,101.25
2018-03-31T07:09:43.783Z,101.25
2018-03-31T07:10:43.680Z,101.25
2018-03-31T07:11:43.577Z,101.25
2018-03-31T07:12:43.473Z,101.25
2018-03-31T07:13:43.357Z,101.25
2018-03-31T07:14:43.253Z,101.25
2018-03-31T07:15:43.150Z,101.25
2018-03-31T07:16:43.047Z,106.88
2018-03-31T07:17:42.933Z,112.50
2018-03-31T07:18:42.839Z,112.50
2018-03-31T07:19:42.725Z,118.13
2018-03-31T07:20:42.622Z,118.13
2018-03-31T07:21:42.519Z,140.63
2018-03-31T07:22:42.402Z,157.50
2018-03-31T07:23:42.366Z,168.75
2018-03-31T07:24:42.195Z,180.00
2018-03-31T07:25:42.093Z,168.75
2018-03-31T07:26:41.988Z,163.13
2018-03-31T07:27:41.873Z,168.75
2018-03-31T07:28:41.770Z,163.13
2018-03-31T07:29:41.666Z,163.13
2018-03-31T07:30:41.563Z,157.50
2018-03-31T07:31:41.465Z,151.88
2018-03-31T07:32:41.343Z,146.25
2018-03-31T07:33:41.240Z,146.25
2018-03-31T07:34:41.136Z,140.63
2018-03-31T07:35:41.033Z,151.88
2018-03-31T07:36:40.930Z,140.63
2018-03-31T07:37:40.815Z,129.38
2018-03-31T07:38:40.713Z,118.13
2018-03-31T07:39:40.607Z,112.50
2018-03-31T07:40:40.506Z,112.50
2018-03-31T07:41:40.388Z,118.13
2018-03-31T07:42:40.285Z,123.75
2018-03-31T07:43:40.186Z,123.75
2018-03-31T07:44:40.079Z,129.38
2018-03-31T07:45:39.964Z,123.75
2018-03-31T07:46:39.860Z,129.38
2018-03-31T07:47:39.762Z,123.75
2018-03-31T07:48:39.653Z,112.50
2018-03-31T07:49:39.555Z,101.25
2018-03-31T07:50:39.434Z,95.63
2018-03-31T07:51:39.329Z,90.00
2018-03-31T07:52:39.229Z,78.75
2018-03-31T07:53:39.123Z,67.50
2018-03-31T07:54:39.025Z,67.50
2018-03-31T07:55:38.905Z,90.00
2018-03-31T07:56:39.103Z,106.88
2018-03-31T07:57:38.699Z,118.13
2018-03-31T07:58:38.595Z,123.75
2018-03-31T07:59:38.480Z,140.63
2018-03-31T08:00:38.376Z,135.00
2018-03-31T08:01:38.273Z,135.00
2018-03-31T08:02:38.169Z,112.50
2018-03-31T08:03:38.065Z,95.63
2018-03-31T08:04:37.952Z,95.63
2018-03-31T08:05:37.851Z,112.50
2018-03-31T08:06:37.746Z,118.13
2018-03-31T08:07:37.641Z,123.75
2018-03-31T08:08:37.537Z,112.50
2018-03-31T08:09:37.420Z,106.88
2018-03-31T08:10:37.319Z,118.13
2018-03-31T08:11:37.213Z,135.00
2018-03-31T08:12:37.110Z,180.00
2018-03-31T08:13:36.998Z,241.88
2018-03-31T08:14:36.893Z,253.13
2018-03-31T08:15:36.789Z,230.63
2018-03-31T08:16:36.685Z,174.38
2018-03-31T08:17:36.584Z,163.13
2018-03-31T08:18:36.469Z,180.00
2018-03-31T08:19:36.362Z,168.75
2018-03-31T08:20:36.259Z,180.00
2018-03-31T08:21:36.155Z,213.75
2018-03-31T08:22:36.054Z,225.00
2018-03-31T08:23:35.939Z,236.25
2018-03-31T08:24:35.838Z,253.13
2018-03-31T08:25:35.730Z,202.50
2018-03-31T08:26:35.628Z,163.13
2018-03-31T08:27:35.534Z,163.13
2018-03-31T08:28:35.408Z,191.25
2018-03-31T08:29:35.304Z,230.63
2018-03-31T08:30:35.242Z,213.75
2018-03-31T08:31:35.098Z,298.13
2018-03-31T08:32:35.007Z,303.75
2018-03-31T08:33:34.905Z,303.75
2018-03-31T08:34:34.776Z,241.88
2018-03-31T08:35:34.676Z,241.88
2018-03-31T08:36:34.570Z,253.13
2018-03-31T08:37:34.465Z,303.75
2018-03-31T08:38:34.351Z,298.13
2018-03-31T08:39:34.246Z,331.88
2018-03-31T08:40:34.143Z,410.63
2018-03-31T08:41:34.039Z,455.63
2018-03-31T08:42:33.936Z,393.75
2018-03-31T08:43:33.833Z,348.75
2018-03-31T08:44:33.718Z,247.50
2018-03-31T08:45:33.615Z,213.75
2018-03-31T08:46:33.511Z,196.88
2018-03-31T08:47:33.408Z,174.38
2018-03-31T08:48:33.304Z,157.50
2018-03-31T08:49:33.201Z,157.50
2018-03-31T08:50:33.097Z,135.00
2018-03-31T08:51:32.982Z,118.13
2018-03-31T08:52:32.878Z,129.38
2018-03-31T08:53:32.776Z,140.63
2018-03-31T08:54:32.728Z,129.38
2018-03-31T08:55:32.568Z,118.13
2018-03-31T08:56:32.764Z,106.88
2018-03-31T08:57:32.350Z,123.75
2018-03-31T08:58:32.246Z,106.88
2018-03-31T08:59:32.143Z,95.63
2018-03-31T09:00:32.039Z,101.25
2018-03-31T09:01:31.936Z,106.88
2018-03-31T09:02:31.833Z,123.75
2018-03-31T09:03:31.717Z,129.38
2018-03-31T09:04:31.613Z,140.63
2018-03-31T09:05:31.510Z,163.13
2018-03-31T09:06:31.406Z,168.75
2018-03-31T09:07:31.303Z,168.75
2018-03-31T09:08:31.200Z,174.38
2018-03-31T09:09:31.096Z,180.00
2018-03-31T09:10:30.982Z,168.75
2018-03-31T09:11:30.878Z,151.88
2018-03-31T09:12:30.775Z,146.25
2018-03-31T09:13:30.672Z,135.00
2018-03-31T09:14:30.568Z,151.88
2018-03-31T09:15:30.465Z,168.75
2018-03-31T09:16:30.352Z,168.75
2018-03-31T09:17:30.258Z,185.63
2018-03-31T09:18:30.141Z,241.88
2018-03-31T09:19:30.038Z,286.88
2018-03-31T09:20:29.935Z,264.38
2018-03-31T09:21:29.831Z,264.38
2018-03-31T09:22:29.718Z,303.75
2018-03-31T09:23:29.617Z,360.00
2018-03-31T09:24:29.510Z,421.88
2018-03-31T09:25:29.407Z,483.75
2018-03-31T09:26:29.303Z,472.50
2018-03-31T09:27:29.200Z,438.75
2018-03-31T09:28:29.085Z,421.88
2018-03-31T09:29:28.981Z,438.75
2018-03-31T09:30:28.877Z,466.88
2018-03-31T09:31:28.787Z,472.50
2018-03-31T09:32:28.672Z,461.25
2018-03-31T09:33:28.566Z,427.50
2018-03-31T09:34:28.463Z,455.63
2018-03-31T09:35:28.360Z,495.00
2018-03-31T09:36:28.246Z,506.25
2018-03-31T09:37:28.143Z,517.50
2018-03-31T09:38:28.039Z,562.50
2018-03-31T09:39:27.935Z,545.63
2018-03-31T09:40:27.832Z,511.88
2018-03-31T09:41:27.979Z,483.75
2018-03-31T09:42:27.625Z,478.13
2018-03-31T09:43:27.522Z,466.88
2018-03-31T09:44:27.419Z,438.75
2018-03-31T09:45:27.302Z,421.88
2018-03-31T09:46:27.198Z,399.38
2018-03-31T09:47:27.095Z,444.38
2018-03-31T09:48:26.992Z,466.88
2018-03-31T09:49:26.892Z,528.75
2018-03-31T09:50:26.785Z,545.63
2018-03-31T09:51:26.681Z,483.75
2018-03-31T09:52:26.578Z,450.00
2018-03-31T09:53:26.475Z,489.38
2018-03-31T09:54:26.372Z,568.13
2018-03-31T09:55:26.268Z,691.88
2018-03-31T09:56:26.166Z,804.38
2018-03-31T09:57:26.050Z,843.75
2018-03-31T09:58:25.948Z,871.88
2018-03-31T09:59:25.844Z,843.75
2018-03-31T10:00:25.746Z,793.13
2018-03-31T10:01:25.886Z,714.38
2018-03-31T10:02:25.534Z,545.63
2018-03-31T10:03:25.430Z,478.13
2018-03-31T10:04:25.327Z,427.50
2018-03-31T10:05:25.227Z,376.88
2018-03-31T10:06:25.120Z,337.50
2018-03-31T10:07:25.017Z,292.50
2018-03-31T10:08:24.915Z,253.13
2018-03-31T10:09:24.815Z,230.63
2018-03-31T10:10:24.708Z,196.88
2018-03-31T10:11:24.604Z,185.63
2018-03-31T10:12:24.501Z,180.00
2018-03-31T10:13:24.397Z,168.75
2018-03-31T10:14:24.299Z,168.75
2018-03-31T10:15:24.190Z,174.38
2018-03-31T10:16:24.089Z,196.88
2018-03-31T10:17:23.984Z,208.13
2018-03-31T10:18:23.881Z,219.38
2018-03-31T10:19:23.766Z,241.88
2018-03-31T10:20:23.661Z,270.00
2018-03-31T10:21:23.807Z,264.38
2018-03-31T10:22:23.454Z,253.13
2018-03-31T10:23:23.353Z,241.88
2018-03-31T10:24:23.247Z,253.13
2018-03-31T10:25:23.144Z,275.63
2018-03-31T10:26:23.041Z,264.38
2018-03-31T10:27:22.938Z,225.00
2018-03-31T10:28:22.835Z,208.13
2018-03-31T10:29:22.731Z,208.13
2018-03-31T10:30:22.628Z,208.13
2018-03-31T10:31:22.525Z,219.38
2018-03-31T10:32:22.422Z,236.25
2018-03-31T10:33:22.306Z,241.88
2018-03-31T10:34:22.203Z,253.13
2018-03-31T10:35:22.137Z,253.13
2018-03-31T10:36:22.013Z,264.38
2018-03-31T10:37:21.900Z,292.50
2018-03-31T10:38:21.789Z,309.38
2018-03-31T10:39:21.686Z,337.50
2018-03-31T10:40:21.589Z,388.13
2018-03-31T10:41:21.481Z,495.00
2018-03-31T10:42:21.376Z,545.63
2018-03-31T10:43:21.262Z,534.38
2018-03-31T10:44:21.171Z,528.75
2018-03-31T10:45:21.053Z,500.63
2018-03-31T10:46:20.949Z,511.88
2018-03-31T10:47:20.846Z,500.63
2018-03-31T10:48:20.743Z,399.38
2018-03-31T10:49:20.641Z,326.25
2018-03-31T10:50:20.536Z,270.00
2018-03-31T10:51:20.432Z,258.75
2018-03-31T10:52:20.330Z,241.88
2018-03-31T10:53:20.226Z,225.00
2018-03-31T10:54:20.123Z,213.75
2018-03-31T10:55:20.020Z,202.50
2018-03-31T10:56:19.916Z,208.13
2018-03-31T10:57:19.812Z,185.63
2018-03-31T10:58:19.709Z,174.38
2018-03-31T10:59:19.606Z,180.00
2018-03-31T11:00:19.514Z,213.75
2018-03-31T11:01:19.388Z,236.25
2018-03-31T11:02:19.285Z,225.00
2018-03-31T11:03:19.181Z,225.00
2018-03-31T11:04:19.080Z,219.38
2018-03-31T11:05:18.974Z,213.75
2018-03-31T11:06:18.871Z,213.75
2018-03-31T11:07:18.767Z,208.13
2018-03-31T11:08:18.665Z,208.13
2018-03-31T11:09:18.565Z,219.38
2018-03-31T11:10:18.458Z,241.88
2018-03-31T11:11:18.355Z,253.13
2018-03-31T11:12:18.256Z,264.38
2018-03-31T11:13:18.149Z,286.88
2018-03-31T11:14:18.045Z,309.38
2018-03-31T11:15:17.942Z,303.75
2018-03-31T11:16:17.838Z,275.63
2018-03-31T11:17:17.734Z,241.88
2018-03-31T11:18:17.631Z,213.75
2018-03-31T11:19:17.518Z,185.63
2018-03-31T11:20:17.414Z,180.00
2018-03-31T11:21:17.310Z,180.00
2018-03-31T11:22:17.205Z,185.63
2018-03-31T11:23:17.102Z,191.25
2018-03-31T11:24:17.000Z,185.63
2018-03-31T11:25:16.895Z,168.75
2018-03-31T11:26:16.794Z,151.88
2018-03-31T11:27:16.689Z,146.25
2018-03-31T11:28:16.585Z,157.50
2018-03-31T11:29:16.481Z,168.75
2018-03-31T11:30:16.380Z,191.25
2018-03-31T11:31:16.282Z,196.88
2018-03-31T11:32:16.185Z,185.63
2018-03-31T11:33:16.069Z,174.38
2018-03-31T11:34:15.965Z,174.38
2018-03-31T11:35:15.862Z,191.25
2018-03-31T11:36:15.758Z,208.13
2018-03-31T11:37:15.655Z,213.75
2018-03-31T11:38:15.552Z,208.13
2018-03-31T11:39:15.449Z,202.50
2018-03-31T11:40:15.346Z,196.88
2018-03-31T11:41:15.243Z,185.63
2018-03-31T11:42:15.138Z,174.38
2018-03-31T11:43:15.036Z,168.75
2018-03-31T11:44:14.945Z,168.75
2018-03-31T11:45:14.829Z,174.38
2018-03-31T11:46:14.725Z,185.63
2018-03-31T11:47:14.622Z,213.75
2018-03-31T11:48:14.519Z,236.25
2018-03-31T11:49:14.404Z,253.13
2018-03-31T11:50:14.300Z,247.50
2018-03-31T11:51:14.203Z,236.25
2018-03-31T11:52:14.103Z,230.63
2018-03-31T11:53:13.991Z,225.00
2018-03-31T11:54:13.887Z,208.13
2018-03-31T11:55:13.788Z,196.88
2018-03-31T11:56:13.681Z,185.63
2018-03-31T11:57:13.580Z,191.25
2018-03-31T11:58:13.474Z,196.88
2018-03-31T11:59:13.371Z,202.50
2018-03-31T12:00:13.270Z,196.88
2018-03-31T12:01:13.164Z,191.25
2018-03-31T12:02:13.061Z,191.25
2018-03-31T12:03:12.958Z,196.88
2018-03-31T12:04:12.855Z,202.50
2018-03-31T12:05:12.751Z,213.75
2018-03-31T12:06:12.648Z,236.25
2018-03-31T12:07:12.544Z,264.38
2018-03-31T12:08:12.440Z,298.13
2018-03-31T12:09:12.338Z,315.00
2018-03-31T12:10:12.235Z,309.38
2018-03-31T12:11:12.131Z,298.13
2018-03-31T12:12:12.027Z,270.00
2018-03-31T12:13:11.925Z,241.88
2018-03-31T12:14:11.821Z,219.38
2018-03-31T12:15:11.717Z,213.75
2018-03-31T12:16:11.619Z,219.38
2018-03-31T12:17:11.511Z,236.25
2018-03-31T12:18:11.408Z,270.00
2018-03-31T12:19:11.304Z,303.75
2018-03-31T12:20:11.202Z,331.88
2018-03-31T12:21:11.099Z,343.13
2018-03-31T12:22:10.995Z,348.75
2018-03-31T12:23:10.891Z,360.00
2018-03-31T12:24:10.793Z,360.00
2018-03-31T12:25:10.684Z,331.88
2018-03-31T12:26:10.582Z,303.75
2018-03-31T12:27:10.524Z,286.88
2018-03-31T12:28:10.375Z,292.50
2018-03-31T12:29:10.272Z,320.63
2018-03-31T12:30:10.167Z,348.75
2018-03-31T12:31:10.066Z,360.00
2018-03-31T12:32:09.961Z,360.00
2018-03-31T12:33:09.858Z,348.75
2018-03-31T12:34:09.755Z,331.88
2018-03-31T12:35:09.651Z,331.88
2018-03-31T12:36:09.552Z,348.75
2018-03-31T12:37:09.448Z,343.13
2018-03-31T12:38:09.355Z,298.13
2018-03-31T12:39:09.250Z,258.75
2018-03-31T12:40:09.148Z,241.88
2018-03-31T12:41:09.043Z,258.75
2018-03-31T12:42:08.939Z,270.00
2018-03-31T12:43:08.836Z,270.00
2018-03-31T12:44:08.733Z,275.63
2018-03-31T12:45:08.630Z,286.88
2018-03-31T12:46:08.527Z,298.13
2018-03-31T12:47:08.423Z,309.38
2018-03-31T12:48:08.319Z,309.38
2018-03-31T12:49:08.217Z,309.38